sensor_id;sensor_type;location;lat;lon;timestamp;pressure;altitude;pressure_sealevel;temperature;humidity
17649;BME280;8943;51.110;-4.158;2023-04-01T00:34:26;99961.44;;;14.61;61.41
17649;BME280;8943;51.110;-4.158;2023-04-01T05:53:15;100116.91;;;14.43;60.73
17649;BME280;8943;51.110;-4.158;2023-04-01T05:55:48;100124.56;;;14.38;61.25
17649;BME280;8943;51.110;-4.158;2023-04-01T06:22:13;100136.06;;;14.48;61.13
17649;BME280;8943;51.110;-4.158;2023-04-01T06:25:18;100134.66;;;14.44;61.33
17649;BME280;8943;51.110;-4.158;2023-04-01T06:28:37;100133.81;;;14.43;61.64
17649;BME280;8943;51.110;-4.158;2023-04-01T06:32:02;100144.25;;;14.47;60.90
17649;BME280;8943;51.110;-4.158;2023-04-01T06:34:45;100136.66;;;14.42;61.24
17649;BME280;8943;51.110;-4.158;2023-04-01T06:37:55;100134.66;;;14.44;62.07
17649;BME280;8943;51.110;-4.158;2023-04-01T06:40:48;100166.53;;;14.47;61.98
17649;BME280;8943;51.110;-4.158;2023-04-01T06:43:36;100142.81;;;14.52;61.10
17649;BME280;8943;51.110;-4.158;2023-04-01T06:49:37;100158.06;;;14.52;60.85
17649;BME280;8943;51.110;-4.158;2023-04-01T06:55:16;100152.94;;;14.58;60.85
17649;BME280;8943;51.110;-4.158;2023-04-01T06:58:21;100180.44;;;14.60;60.82
17649;BME280;8943;51.110;-4.158;2023-04-01T07:26:59;100195.41;;;14.81;60.95
17649;BME280;8943;51.110;-4.158;2023-04-01T07:41:42;100195.41;;;14.81;61.00
17649;BME280;8943;51.110;-4.158;2023-04-01T07:44:28;100204.38;;;14.89;61.13
17649;BME280;8943;51.110;-4.158;2023-04-01T07:47:29;100201.22;;;14.94;60.47
17649;BME280;8943;51.110;-4.158;2023-04-01T07:50:13;100221.84;;;14.93;60.26
17649;BME280;8943;51.110;-4.158;2023-04-01T07:52:51;100208.06;;;14.88;60.41
17649;BME280;8943;51.110;-4.158;2023-04-01T07:59:07;100217.44;;;14.92;61.09
17649;BME280;8943;51.110;-4.158;2023-04-01T08:02:20;100219.09;;;15.03;60.66
17649;BME280;8943;51.110;-4.158;2023-04-01T08:08:06;100225.22;;;15.13;60.29
17649;BME280;8943;51.110;-4.158;2023-04-01T08:10:40;100235.56;;;15.08;59.78
17649;BME280;8943;51.110;-4.158;2023-04-01T08:13:20;100231.63;;;15.03;60.67
17649;BME280;8943;51.110;-4.158;2023-04-01T08:16:22;100239.53;;;15.04;60.44
17649;BME280;8943;51.110;-4.158;2023-04-01T08:19:16;100243.22;;;15.03;60.71
17649;BME280;8943;51.110;-4.158;2023-04-01T08:22:32;100246.13;;;15.10;61.20
17649;BME280;8943;51.110;-4.158;2023-04-01T08:25:37;100242.75;;;15.26;61.12
17649;BME280;8943;51.110;-4.158;2023-04-01T08:30:43;100244.59;;;15.43;61.01
17649;BME280;8943;51.110;-4.158;2023-04-01T08:33:26;100253.00;;;15.48;60.57
17649;BME280;8943;51.110;-4.158;2023-04-01T08:45:28;100263.41;;;15.51;61.11
17649;BME280;8943;51.110;-4.158;2023-04-01T08:48:23;100266.81;;;15.53;61.03
17649;BME280;8943;51.110;-4.158;2023-04-01T08:54:39;100278.94;;;15.57;61.06
17649;BME280;8943;51.110;-4.158;2023-04-01T08:57:15;100272.19;;;15.53;60.74
17649;BME280;8943;51.110;-4.158;2023-04-01T08:59:57;100284.75;;;15.53;60.83
17649;BME280;8943;51.110;-4.158;2023-04-01T09:02:51;100281.25;;;15.52;60.93
17649;BME280;8943;51.110;-4.158;2023-04-01T09:05:34;100270.50;;;15.52;60.52
17649;BME280;8943;51.110;-4.158;2023-04-01T09:08:24;100283.47;;;15.57;60.60
17649;BME280;8943;51.110;-4.158;2023-04-01T09:11:25;100285.44;;;15.55;60.57
17649;BME280;8943;51.110;-4.158;2023-04-01T09:14:22;100285.97;;;15.58;60.85
17649;BME280;8943;51.110;-4.158;2023-04-01T09:17:20;100286.63;;;15.52;59.98
17649;BME280;8943;51.110;-4.158;2023-04-01T09:20:30;100284.47;;;15.38;59.96
17649;BME280;8943;51.110;-4.158;2023-04-01T09:23:20;100302.63;;;15.26;60.20
17649;BME280;8943;51.110;-4.158;2023-04-01T09:26:41;100299.34;;;15.14;60.67
17649;BME280;8943;51.110;-4.158;2023-04-01T09:29:29;100290.38;;;15.06;60.95
17649;BME280;8943;51.110;-4.158;2023-04-01T09:35:02;100297.19;;;15.00;60.92
17649;BME280;8943;51.110;-4.158;2023-04-01T09:37:41;100313.84;;;15.04;61.00
17649;BME280;8943;51.110;-4.158;2023-04-01T09:40:26;100309.44;;;15.03;60.97
17649;BME280;8943;51.110;-4.158;2023-04-01T09:46:16;100324.91;;;14.91;61.37
17649;BME280;8943;51.110;-4.158;2023-04-01T09:49:21;100322.84;;;15.03;61.06
17649;BME280;8943;51.110;-4.158;2023-04-01T09:52:10;100310.81;;;15.07;61.41
17649;BME280;8943;51.110;-4.158;2023-04-01T09:55:00;100318.81;;;15.16;61.02
17649;BME280;8943;51.110;-4.158;2023-04-01T09:58:05;100330.78;;;15.22;61.28
17649;BME280;8943;51.110;-4.158;2023-04-01T10:00:53;100325.78;;;15.27;61.31
17649;BME280;8943;51.110;-4.158;2023-04-01T10:19:15;100366.34;;;15.06;60.66
17649;BME280;8943;51.110;-4.158;2023-04-01T10:22:30;100362.97;;;15.04;60.71
17649;BME280;8943;51.110;-4.158;2023-04-01T10:25:53;100370.31;;;15.02;60.87
17649;BME280;8943;51.110;-4.158;2023-04-01T10:32:17;100381.59;;;15.06;60.88
17649;BME280;8943;51.110;-4.158;2023-04-01T10:44:28;100406.78;;;14.95;61.16
17649;BME280;8943;51.110;-4.158;2023-04-01T10:50:39;100394.56;;;15.10;61.74
17649;BME280;8943;51.110;-4.158;2023-04-01T10:53:44;100394.34;;;15.22;61.80
17649;BME280;8943;51.110;-4.158;2023-04-01T10:56:36;100419.84;;;15.35;61.55
17649;BME280;8943;51.110;-4.158;2023-04-01T11:02:44;100420.94;;;15.42;61.32
17649;BME280;8943;51.110;-4.158;2023-04-01T11:09:16;100449.00;;;15.48;60.75
17649;BME280;8943;51.110;-4.158;2023-04-01T11:12:21;100432.19;;;15.46;61.09
17649;BME280;8943;51.110;-4.158;2023-04-01T11:21:06;100431.59;;;15.52;61.06
17649;BME280;8943;51.110;-4.158;2023-04-01T11:23:54;100442.03;;;15.55;61.07
17649;BME280;8943;51.110;-4.158;2023-04-01T11:26:43;100450.78;;;15.57;60.82
17649;BME280;8943;51.110;-4.158;2023-04-01T11:33:04;100451.31;;;15.43;60.20
17649;BME280;8943;51.110;-4.158;2023-04-01T11:36:03;100466.75;;;15.31;60.50
17649;BME280;8943;51.110;-4.158;2023-04-01T11:38:57;100460.88;;;15.28;61.21
17649;BME280;8943;51.110;-4.158;2023-04-01T11:41:35;100466.22;;;15.28;61.33
17649;BME280;8943;51.110;-4.158;2023-04-01T11:47:19;100466.31;;;15.36;61.28
17649;BME280;8943;51.110;-4.158;2023-04-01T12:09:04;100519.91;;;15.55;61.27
17649;BME280;8943;51.110;-4.158;2023-04-01T12:17:39;100513.53;;;15.56;60.87
17649;BME280;8943;51.110;-4.158;2023-04-01T12:24:05;100514.09;;;15.60;61.25
17649;BME280;8943;51.110;-4.158;2023-04-01T12:35:46;100535.63;;;15.50;61.09
17649;BME280;8943;51.110;-4.158;2023-04-01T12:38:31;100527.97;;;15.55;61.33
17649;BME280;8943;51.110;-4.158;2023-04-01T12:41:14;100536.41;;;15.60;61.13
17649;BME280;8943;51.110;-4.158;2023-04-01T12:44:23;100536.72;;;15.67;60.82
17649;BME280;8943;51.110;-4.158;2023-04-01T12:50:31;100538.94;;;15.72;61.42
17649;BME280;8943;51.110;-4.158;2023-04-01T12:53:26;100549.91;;;15.78;60.96
17649;BME280;8943;51.110;-4.158;2023-04-01T12:56:03;100563.91;;;15.82;61.13
17649;BME280;8943;51.110;-4.158;2023-04-01T12:59:16;100561.69;;;15.95;61.30
17649;BME280;8943;51.110;-4.158;2023-04-01T13:02:03;100562.06;;;16.00;61.12
17649;BME280;8943;51.110;-4.158;2023-04-01T13:04:51;100569.09;;;16.11;60.85
17649;BME280;8943;51.110;-4.158;2023-04-01T13:07:53;100567.75;;;16.15;60.82
17649;BME280;8943;51.110;-4.158;2023-04-01T13:10:35;100572.47;;;16.13;60.49
17649;BME280;8943;51.110;-4.158;2023-04-01T13:13:28;100572.91;;;16.08;60.81
17649;BME280;8943;51.110;-4.158;2023-04-01T13:16:11;100570.78;;;16.30;61.20
17649;BME280;8943;51.110;-4.158;2023-04-01T13:18:54;100579.94;;;16.55;61.55
17649;BME280;8943;51.110;-4.158;2023-04-01T13:21:34;100590.06;;;16.79;61.06
17649;BME280;8943;51.110;-4.158;2023-04-01T13:24:24;100589.34;;;16.94;60.64
17649;BME280;8943;51.110;-4.158;2023-04-01T13:27:01;100599.00;;;17.05;60.78
17649;BME280;8943;51.110;-4.158;2023-04-01T13:29:40;100602.28;;;17.17;61.05
17649;BME280;8943;51.110;-4.158;2023-04-01T13:32:18;100602.88;;;17.29;60.33
17649;BME280;8943;51.110;-4.158;2023-04-01T13:35:18;100614.31;;;17.31;59.79
17649;BME280;8943;51.110;-4.158;2023-04-01T13:38:01;100610.94;;;17.29;59.70
17649;BME280;8943;51.110;-4.158;2023-04-01T13:40:38;100625.78;;;17.33;60.01
17649;BME280;8943;51.110;-4.158;2023-04-01T13:43:29;100623.50;;;17.46;60.15
17649;BME280;8943;51.110;-4.158;2023-04-01T13:46:12;100630.69;;;17.63;60.11
17649;BME280;8943;51.110;-4.158;2023-04-01T13:49:07;100641.97;;;17.93;60.35
17649;BME280;8943;51.110;-4.158;2023-04-01T13:51:55;100640.03;;;18.27;60.48
17649;BME280;8943;51.110;-4.158;2023-04-01T13:54:44;100642.97;;;18.50;60.16
17649;BME280;8943;51.110;-4.158;2023-04-01T13:57:42;100652.16;;;18.74;59.60
17649;BME280;8943;51.110;-4.158;2023-04-01T14:00:32;100656.84;;;18.72;60.35
17649;BME280;8943;51.110;-4.158;2023-04-01T14:03:41;100672.03;;;18.97;59.90
17649;BME280;8943;51.110;-4.158;2023-04-01T14:06:30;100673.22;;;19.19;57.79
17649;BME280;8943;51.110;-4.158;2023-04-01T14:09:42;100688.09;;;19.23;57.33
17649;BME280;8943;51.110;-4.158;2023-04-01T14:12:21;100677.91;;;19.42;56.59
17649;BME280;8943;51.110;-4.158;2023-04-01T14:15:06;100689.25;;;19.37;56.32
17649;BME280;8943;51.110;-4.158;2023-04-01T14:17:47;100697.88;;;19.16;56.94
17649;BME280;8943;51.110;-4.158;2023-04-01T14:20:27;100699.56;;;19.34;55.28
17649;BME280;8943;51.110;-4.158;2023-04-01T14:23:19;100713.38;;;19.47;55.21
17649;BME280;8943;51.110;-4.158;2023-04-01T14:26:02;100692.50;;;19.08;57.21
17649;BME280;8943;51.110;-4.158;2023-04-01T14:28:55;100690.97;;;19.14;57.04
17649;BME280;8943;51.110;-4.158;2023-04-01T14:31:36;100698.34;;;19.61;55.51
17649;BME280;8943;51.110;-4.158;2023-04-01T14:34:21;100712.25;;;20.05;54.98
17649;BME280;8943;51.110;-4.158;2023-04-01T14:37:01;100727.97;;;20.57;55.11
17649;BME280;8943;51.110;-4.158;2023-04-01T14:39:57;100747.06;;;20.87;53.10
17649;BME280;8943;51.110;-4.158;2023-04-01T14:46:04;100745.28;;;21.02;48.40
17649;BME280;8943;51.110;-4.158;2023-04-01T14:48:53;100756.78;;;21.04;49.84
17649;BME280;8943;51.110;-4.158;2023-04-01T14:51:29;100767.69;;;20.96;49.45
17649;BME280;8943;51.110;-4.158;2023-04-01T14:54:06;100785.75;;;21.03;48.86
17649;BME280;8943;51.110;-4.158;2023-04-01T14:57:04;100775.81;;;21.19;49.96
17649;BME280;8943;51.110;-4.158;2023-04-01T14:59:39;100775.97;;;21.48;50.70
17649;BME280;8943;51.110;-4.158;2023-04-01T15:02:18;100773.13;;;21.79;47.45
17649;BME280;8943;51.110;-4.158;2023-04-01T15:05:04;100790.34;;;21.87;48.23
17649;BME280;8943;51.110;-4.158;2023-04-01T15:14:02;100807.84;;;21.61;46.12
17649;BME280;8943;51.110;-4.158;2023-04-01T15:16:53;100793.44;;;21.98;46.64
17649;BME280;8943;51.110;-4.158;2023-04-01T15:19:55;100799.56;;;22.45;48.14
17649;BME280;8943;51.110;-4.158;2023-04-01T15:25:38;100827.19;;;23.14;46.35
17649;BME280;8943;51.110;-4.158;2023-04-01T15:28:20;100829.78;;;23.22;45.04
17649;BME280;8943;51.110;-4.158;2023-04-01T15:30:56;100816.34;;;23.35;46.37
17649;BME280;8943;51.110;-4.158;2023-04-01T15:33:39;100828.81;;;23.51;46.62
17649;BME280;8943;51.110;-4.158;2023-04-01T15:36:24;100824.00;;;23.68;43.65
17649;BME280;8943;51.110;-4.158;2023-04-01T15:39:00;100836.09;;;23.66;44.80
17649;BME280;8943;51.110;-4.158;2023-04-01T15:41:38;100854.50;;;23.63;43.36
17649;BME280;8943;51.110;-4.158;2023-04-01T15:44:27;100855.97;;;23.45;40.42
17649;BME280;8943;51.110;-4.158;2023-04-01T15:47:31;100877.97;;;23.28;43.10
17649;BME280;8943;51.110;-4.158;2023-04-01T15:50:28;100865.00;;;23.09;43.55
17649;BME280;8943;51.110;-4.158;2023-04-01T15:53:30;100865.78;;;23.24;45.52
17649;BME280;8943;51.110;-4.158;2023-04-01T15:56:15;100872.13;;;23.31;43.92
17649;BME280;8943;51.110;-4.158;2023-04-01T15:58:57;100875.91;;;23.52;46.00
17649;BME280;8943;51.110;-4.158;2023-04-01T16:01:38;100882.19;;;23.67;44.42
17649;BME280;8943;51.110;-4.158;2023-04-01T16:04:42;100879.84;;;23.64;42.49
17649;BME280;8943;51.110;-4.158;2023-04-01T16:07:38;100901.31;;;23.59;43.38
17649;BME280;8943;51.110;-4.158;2023-04-01T16:10:44;100889.28;;;22.96;42.88
17649;BME280;8943;51.110;-4.158;2023-04-01T16:13:34;100908.06;;;22.00;44.16
17649;BME280;8943;51.110;-4.158;2023-04-01T16:16:25;100901.34;;;21.11;46.69
17649;BME280;8943;51.110;-4.158;2023-04-01T16:19:07;100914.44;;;20.52;47.21
17649;BME280;8943;51.110;-4.158;2023-04-01T16:21:46;100930.69;;;20.03;47.87
17649;BME280;8943;51.110;-4.158;2023-04-01T16:24:22;100906.69;;;19.67;49.07
17649;BME280;8943;51.110;-4.158;2023-04-01T16:26:55;100914.56;;;19.44;50.42
17649;BME280;8943;51.110;-4.158;2023-04-01T16:29:32;100925.16;;;19.29;50.97
17649;BME280;8943;51.110;-4.158;2023-04-01T16:32:15;100935.13;;;19.37;51.27
17649;BME280;8943;51.110;-4.158;2023-04-01T16:34:56;100940.94;;;19.59;50.34
17649;BME280;8943;51.110;-4.158;2023-04-01T16:37:33;100939.47;;;19.72;50.47
17649;BME280;8943;51.110;-4.158;2023-04-01T16:40:16;100946.06;;;19.86;49.82
17649;BME280;8943;51.110;-4.158;2023-04-01T16:42:53;100960.09;;;19.82;50.51
17649;BME280;8943;51.110;-4.158;2023-04-01T16:45:32;100966.16;;;19.67;49.69
17649;BME280;8943;51.110;-4.158;2023-04-01T16:48:07;100963.72;;;19.48;50.29
17649;BME280;8943;51.110;-4.158;2023-04-01T16:50:51;100978.50;;;19.27;51.01
17649;BME280;8943;51.110;-4.158;2023-04-01T16:53:34;100969.41;;;19.28;52.20
17649;BME280;8943;51.110;-4.158;2023-04-01T16:56:13;100972.50;;;19.50;51.63
17649;BME280;8943;51.110;-4.158;2023-04-01T16:59:01;100981.50;;;19.16;51.85
17649;BME280;8943;51.110;-4.158;2023-04-01T17:01:49;100978.00;;;19.24;51.95
17649;BME280;8943;51.110;-4.158;2023-04-01T17:04:30;100979.53;;;19.85;50.86
17649;BME280;8943;51.110;-4.158;2023-04-01T17:07:07;100983.75;;;19.96;50.23
17649;BME280;8943;51.110;-4.158;2023-04-01T17:10:28;100996.28;;;19.97;50.10
17649;BME280;8943;51.110;-4.158;2023-04-01T17:13:26;101001.22;;;19.51;50.16
17649;BME280;8943;51.110;-4.158;2023-04-01T17:20:05;101005.72;;;19.76;51.96
17649;BME280;8943;51.110;-4.158;2023-04-01T17:22:41;101021.16;;;20.09;51.29
17649;BME280;8943;51.110;-4.158;2023-04-01T17:25:46;101030.47;;;20.06;50.29
17649;BME280;8943;51.110;-4.158;2023-04-01T17:28:26;101045.28;;;19.77;50.35
17649;BME280;8943;51.110;-4.158;2023-04-01T17:31:02;101037.81;;;19.37;50.08
17649;BME280;8943;51.110;-4.158;2023-04-01T17:33:51;101034.91;;;18.96;50.75
17649;BME280;8943;51.110;-4.158;2023-04-01T17:36:36;101058.50;;;18.50;51.01
17649;BME280;8943;51.110;-4.158;2023-04-01T17:39:19;101059.28;;;18.07;50.72
17649;BME280;8943;51.110;-4.158;2023-04-01T17:41:56;101062.75;;;17.72;51.02
17649;BME280;8943;51.110;-4.158;2023-04-01T17:44:36;101083.00;;;17.48;51.34
17649;BME280;8943;51.110;-4.158;2023-04-01T17:47:18;101078.09;;;17.34;52.37
17649;BME280;8943;51.110;-4.158;2023-04-01T17:50:05;101075.63;;;17.13;52.18
17649;BME280;8943;51.110;-4.158;2023-04-01T17:52:39;101089.81;;;17.06;52.87
17649;BME280;8943;51.110;-4.158;2023-04-01T17:55:44;101097.91;;;16.96;53.30
17649;BME280;8943;51.110;-4.158;2023-04-01T17:58:19;101098.28;;;17.20;54.06
17649;BME280;8943;51.110;-4.158;2023-04-01T18:00:59;101105.81;;;17.54;53.52
17649;BME280;8943;51.110;-4.158;2023-04-01T18:03:47;101106.00;;;17.70;53.49
17649;BME280;8943;51.110;-4.158;2023-04-01T18:06:27;101110.91;;;18.12;53.62
17649;BME280;8943;51.110;-4.158;2023-04-01T18:09:01;101117.63;;;18.44;52.96
17649;BME280;8943;51.110;-4.158;2023-04-01T18:11:39;101118.25;;;18.73;51.29
17649;BME280;8943;51.110;-4.158;2023-04-01T18:14:31;101122.16;;;18.97;50.75
17649;BME280;8943;51.110;-4.158;2023-04-01T18:17:16;101130.53;;;19.12;50.34
17649;BME280;8943;51.110;-4.158;2023-04-01T18:20:07;101124.63;;;19.08;51.36
17649;BME280;8943;51.110;-4.158;2023-04-01T18:22:43;101139.44;;;19.04;51.17
17649;BME280;8943;51.110;-4.158;2023-04-01T18:25:19;101134.44;;;19.17;50.83
17649;BME280;8943;51.110;-4.158;2023-04-01T18:27:52;101139.56;;;19.20;50.40
17649;BME280;8943;51.110;-4.158;2023-04-01T18:30:28;101151.94;;;19.05;50.53
17649;BME280;8943;51.110;-4.158;2023-04-01T18:33:00;101163.84;;;18.76;49.47
17649;BME280;8943;51.110;-4.158;2023-04-01T18:35:45;101165.59;;;18.50;50.38
17649;BME280;8943;51.110;-4.158;2023-04-01T18:38:16;101179.88;;;18.15;50.27
17649;BME280;8943;51.110;-4.158;2023-04-01T18:40:49;101179.50;;;17.72;50.25
17649;BME280;8943;51.110;-4.158;2023-04-01T18:43:27;101193.78;;;17.26;50.49
17649;BME280;8943;51.110;-4.158;2023-04-01T18:46:12;101198.91;;;16.71;51.88
17649;BME280;8943;51.110;-4.158;2023-04-01T18:48:51;101195.31;;;16.32;52.65
17649;BME280;8943;51.110;-4.158;2023-04-01T18:51:23;101201.00;;;15.98;53.63
17649;BME280;8943;51.110;-4.158;2023-04-01T18:53:56;101214.47;;;15.67;53.39
17649;BME280;8943;51.110;-4.158;2023-04-01T18:56:29;101213.72;;;15.44;54.32
17649;BME280;8943;51.110;-4.158;2023-04-01T18:59:03;101216.88;;;15.29;54.40
17649;BME280;8943;51.110;-4.158;2023-04-01T19:01:39;101219.16;;;15.12;54.79
17649;BME280;8943;51.110;-4.158;2023-04-01T19:04:16;101216.06;;;14.96;55.33
17649;BME280;8943;51.110;-4.158;2023-04-01T19:06:50;101229.41;;;14.86;55.59
17649;BME280;8943;51.110;-4.158;2023-04-01T19:09:21;101232.16;;;14.75;56.08
17649;BME280;8943;51.110;-4.158;2023-04-01T19:12:27;101241.66;;;14.68;55.82
17649;BME280;8943;51.110;-4.158;2023-04-01T19:15:20;101243.41;;;14.58;55.51
17649;BME280;8943;51.110;-4.158;2023-04-01T19:18:16;101243.19;;;14.50;56.13
17649;BME280;8943;51.110;-4.158;2023-04-01T19:20:53;101250.81;;;14.43;56.44
17649;BME280;8943;51.110;-4.158;2023-04-01T19:24:00;101263.03;;;14.36;56.35
17649;BME280;8943;51.110;-4.158;2023-04-01T19:26:37;101263.28;;;14.33;56.63
17649;BME280;8943;51.110;-4.158;2023-04-01T19:29:18;101270.84;;;14.28;56.55
17649;BME280;8943;51.110;-4.158;2023-04-01T19:32:01;101273.03;;;14.23;56.49
17649;BME280;8943;51.110;-4.158;2023-04-01T19:34:43;101284.97;;;14.18;56.69
17649;BME280;8943;51.110;-4.158;2023-04-01T19:37:23;101277.31;;;14.14;56.90
17649;BME280;8943;51.110;-4.158;2023-04-01T19:40:02;101302.25;;;14.14;57.14
17649;BME280;8943;51.110;-4.158;2023-04-01T19:42:36;101309.59;;;14.12;57.50
17649;BME280;8943;51.110;-4.158;2023-04-01T19:45:23;101303.50;;;14.10;57.53
17649;BME280;8943;51.110;-4.158;2023-04-01T19:48:00;101309.81;;;14.09;57.62
17649;BME280;8943;51.110;-4.158;2023-04-01T19:50:38;101323.97;;;14.11;57.48
17649;BME280;8943;51.110;-4.158;2023-04-01T19:53:15;101326.16;;;14.06;57.44
17649;BME280;8943;51.110;-4.158;2023-04-01T19:55:50;101327.50;;;14.01;57.89
17649;BME280;8943;51.110;-4.158;2023-04-01T19:58:26;101336.38;;;14.01;57.91
17649;BME280;8943;51.110;-4.158;2023-04-01T20:01:00;101341.47;;;13.93;58.03
17649;BME280;8943;51.110;-4.158;2023-04-01T20:03:39;101353.88;;;13.94;57.93
17649;BME280;8943;51.110;-4.158;2023-04-01T20:06:29;101349.66;;;13.91;57.92
17649;BME280;8943;51.110;-4.158;2023-04-01T20:12:26;101371.66;;;13.84;58.00
17649;BME280;8943;51.110;-4.158;2023-04-01T20:15:02;101370.31;;;13.78;58.26
17649;BME280;8943;51.110;-4.158;2023-04-01T20:17:33;101373.09;;;13.77;58.51
17649;BME280;8943;51.110;-4.158;2023-04-01T20:20:19;101378.69;;;13.74;58.20
17649;BME280;8943;51.110;-4.158;2023-04-01T20:23:08;101385.13;;;13.71;58.10
17649;BME280;8943;51.110;-4.158;2023-04-01T20:25:52;101392.56;;;13.68;58.03
17649;BME280;8943;51.110;-4.158;2023-04-01T20:28:29;101391.06;;;13.63;58.08
17649;BME280;8943;51.110;-4.158;2023-04-01T20:31:17;101407.13;;;13.63;58.31
17649;BME280;8943;51.110;-4.158;2023-04-01T20:34:19;101404.81;;;13.59;58.31
17649;BME280;8943;51.110;-4.158;2023-04-01T20:37:00;101398.59;;;13.58;58.01
17649;BME280;8943;51.110;-4.158;2023-04-01T20:39:48;101412.34;;;13.54;58.31
17649;BME280;8943;51.110;-4.158;2023-04-01T20:42:47;101412.47;;;13.52;58.25
17649;BME280;8943;51.110;-4.158;2023-04-01T20:45:34;101413.88;;;13.45;58.54
17649;BME280;8943;51.110;-4.158;2023-04-01T20:48:24;101427.25;;;13.45;58.30
17649;BME280;8943;51.110;-4.158;2023-04-01T20:50:58;101442.47;;;13.45;58.37
17649;BME280;8943;51.110;-4.158;2023-04-01T20:53:36;101439.06;;;13.43;58.53
17649;BME280;8943;51.110;-4.158;2023-04-01T20:56:20;101454.34;;;13.40;58.42
17649;BME280;8943;51.110;-4.158;2023-04-01T20:58:57;101468.38;;;13.44;58.51
17649;BME280;8943;51.110;-4.158;2023-04-01T21:01:36;101468.72;;;13.39;58.31
17649;BME280;8943;51.110;-4.158;2023-04-01T21:04:22;101465.81;;;13.43;58.01
17649;BME280;8943;51.110;-4.158;2023-04-01T21:07:07;101472.75;;;13.45;57.73
17649;BME280;8943;51.110;-4.158;2023-04-01T21:09:51;101491.75;;;13.42;57.90
17649;BME280;8943;51.110;-4.158;2023-04-01T21:12:31;101490.00;;;13.41;57.82
17649;BME280;8943;51.110;-4.158;2023-04-01T21:18:09;101488.31;;;13.40;58.15
17649;BME280;8943;51.110;-4.158;2023-04-01T21:21:03;101483.41;;;13.34;58.01
17649;BME280;8943;51.110;-4.158;2023-04-01T21:26:47;101489.22;;;13.28;58.10
17649;BME280;8943;51.110;-4.158;2023-04-01T21:29:36;101503.66;;;13.25;58.37
17649;BME280;8943;51.110;-4.158;2023-04-01T21:32:18;101500.44;;;13.20;58.57
17649;BME280;8943;51.110;-4.158;2023-04-01T21:34:55;101499.69;;;13.18;58.67
17649;BME280;8943;51.110;-4.158;2023-04-01T21:37:49;101500.88;;;13.14;58.70
17649;BME280;8943;51.110;-4.158;2023-04-01T21:40:45;101509.75;;;13.14;58.67
17649;BME280;8943;51.110;-4.158;2023-04-01T21:43:33;101514.59;;;13.09;58.87
17649;BME280;8943;51.110;-4.158;2023-04-01T21:46:23;101516.41;;;13.09;59.03
17649;BME280;8943;51.110;-4.158;2023-04-01T21:49:09;101527.19;;;13.07;58.93
17649;BME280;8943;51.110;-4.158;2023-04-01T21:52:01;101532.53;;;13.07;58.97
17649;BME280;8943;51.110;-4.158;2023-04-01T22:01:33;101540.28;;;12.99;59.13
17649;BME280;8943;51.110;-4.158;2023-04-01T22:04:18;101540.47;;;12.96;59.39
17649;BME280;8943;51.110;-4.158;2023-04-01T22:06:54;101546.81;;;12.95;59.56
17649;BME280;8943;51.110;-4.158;2023-04-01T22:09:29;101555.81;;;12.94;59.65
17649;BME280;8943;51.110;-4.158;2023-04-01T22:12:04;101555.81;;;12.94;59.42
17649;BME280;8943;51.110;-4.158;2023-04-01T22:14:40;101562.09;;;12.93;59.55
17649;BME280;8943;51.110;-4.158;2023-04-01T22:17:18;101574.41;;;12.96;59.67
17649;BME280;8943;51.110;-4.158;2023-04-01T22:19:56;101570.69;;;12.98;59.65
17649;BME280;8943;51.110;-4.158;2023-04-01T22:22:45;101577.94;;;12.96;59.75
17649;BME280;8943;51.110;-4.158;2023-04-01T22:25:24;101586.09;;;12.95;59.58
17649;BME280;8943;51.110;-4.158;2023-04-01T22:27:58;101589.72;;;12.94;59.78
17649;BME280;8943;51.110;-4.158;2023-04-01T22:30:33;101594.19;;;12.93;59.85
17649;BME280;8943;51.110;-4.158;2023-04-01T22:33:06;101598.69;;;12.93;59.81
17649;BME280;8943;51.110;-4.158;2023-04-01T22:35:42;101611.22;;;12.92;59.94
17649;BME280;8943;51.110;-4.158;2023-04-01T22:38:25;101607.78;;;12.90;59.86
17649;BME280;8943;51.110;-4.158;2023-04-01T22:41:02;101606.09;;;12.89;59.94
17649;BME280;8943;51.110;-4.158;2023-04-01T22:43:36;101604.28;;;12.89;59.77
17649;BME280;8943;51.110;-4.158;2023-04-01T22:49:07;101620.41;;;12.88;59.78
17649;BME280;8943;51.110;-4.158;2023-04-01T22:51:42;101617.00;;;12.86;59.97
17649;BME280;8943;51.110;-4.158;2023-04-01T22:54:17;101632.06;;;12.87;60.04
17649;BME280;8943;51.110;-4.158;2023-04-01T22:56:51;101636.69;;;12.85;60.02
17649;BME280;8943;51.110;-4.158;2023-04-01T22:59:27;101635.06;;;12.82;60.09
17649;BME280;8943;51.110;-4.158;2023-04-01T23:02:03;101640.41;;;12.82;59.92
17649;BME280;8943;51.110;-4.158;2023-04-01T23:04:39;101644.81;;;12.83;59.59
17649;BME280;8943;51.110;-4.158;2023-04-01T23:07:24;101644.16;;;12.80;59.79
17649;BME280;8943;51.110;-4.158;2023-04-01T23:09:56;101639.13;;;12.75;59.73
17649;BME280;8943;51.110;-4.158;2023-04-01T23:12:25;101645.31;;;12.76;60.15
17649;BME280;8943;51.110;-4.158;2023-04-01T23:14:56;101649.06;;;12.73;59.71
17649;BME280;8943;51.110;-4.158;2023-04-01T23:17:39;101655.47;;;12.71;59.99
17649;BME280;8943;51.110;-4.158;2023-04-01T23:20:26;101664.47;;;12.70;60.13
17649;BME280;8943;51.110;-4.158;2023-04-01T23:26:12;101666.47;;;12.66;60.26
17649;BME280;8943;51.110;-4.158;2023-04-01T23:28:45;101666.59;;;12.65;60.23
17649;BME280;8943;51.110;-4.158;2023-04-01T23:31:26;101676.31;;;12.66;59.95
17649;BME280;8943;51.110;-4.158;2023-04-01T23:33:56;101677.28;;;12.65;60.10
17649;BME280;8943;51.110;-4.158;2023-04-01T23:36:26;101675.66;;;12.62;60.43
17649;BME280;8943;51.110;-4.158;2023-04-01T23:38:56;101687.22;;;12.62;60.08
17649;BME280;8943;51.110;-4.158;2023-04-01T23:41:29;101687.22;;;12.62;60.25
17649;BME280;8943;51.110;-4.158;2023-04-01T23:44:01;101689.03;;;12.62;60.31
17649;BME280;8943;51.110;-4.158;2023-04-01T23:46:32;101690.09;;;12.59;60.36
17649;BME280;8943;51.110;-4.158;2023-04-01T23:49:03;101698.31;;;12.56;60.29
17649;BME280;8943;51.110;-4.158;2023-04-01T23:51:38;101701.84;;;12.57;60.34
17649;BME280;8943;51.110;-4.158;2023-04-01T23:54:14;101701.00;;;12.56;60.59
17649;BME280;8943;51.110;-4.158;2023-04-01T23:56:47;101694.13;;;12.52;60.32
17649;BME280;8943;51.110;-4.158;2023-04-01T23:59:18;101697.78;;;12.51;60.35
